Time;durP1;ratioP1;P1;durP2;ratioP2;P2;SDS_P1;SDS_P2;PMS_P1;PMS_P2;Temp;Humidity;BMP_temperature;BMP_pressure;BME280_temperature;BME280_humidity;BME280_pressure;Samples;Min_cycle;Max_cycle;Signal;HPM_P1;HPM_P2
2023/01/06 00:00:39;;;;;;;10.50;3.53;;;;;;;11.83;100.00;100311.13;12189933;19;20033;-80
2023/01/06 00:04:41;;;;;;;8.55;3.47;;;;;;;11.84;100.00;100304.53;12194985;19;20002;-81
2023/01/06 00:08:43;;;;;;;7.68;3.28;;;;;;;11.84;100.00;100296.25;12173941;19;20034;-80
2023/01/06 00:12:46;;;;;;;7.85;3.90;;;;;;;11.84;100.00;100298.19;12197775;19;20014;-80
2023/01/06 00:16:47;;;;;;;;;;;;;;;11.74;100.00;100296.03;12193942;19;20003;-81
2023/01/06 00:20:49;;;;;;;6.78;3.63;;;;;;;11.68;100.00;100290.66;12173273;19;19911;-81
2023/01/06 00:24:50;;;;;;;7.65;3.90;;;;;;;11.69;100.00;100290.44;12192589;19;20014;-80
2023/01/06 00:28:53;;;;;;;9.13;4.63;;;;;;;11.68;100.00;100291.50;12193262;19;20018;-80
2023/01/06 00:32:55;;;;;;;9.00;4.60;;;;;;;11.62;100.00;100287.81;12169152;19;20023;-82
2023/01/06 00:36:56;;;;;;;9.63;5.18;;;;;;;11.67;100.00;100297.28;12193179;19;20003;-81
2023/01/06 00:41:02;;;;;;;10.30;6.00;;;;;;;11.63;100.00;100285.91;12192244;19;20006;-80
2023/01/06 00:45:04;;;;;;;11.63;5.85;;;;;;;11.63;100.00;100274.88;12170987;19;20011;-79
2023/01/06 00:49:07;;;;;;;11.10;6.90;;;;;;;11.62;100.00;100282.28;12192836;19;20007;-80
2023/01/06 00:53:08;;;;;;;13.75;6.97;;;;;;;11.62;100.00;100270.41;12194546;19;20029;-80
2023/01/06 00:57:10;;;;;;;15.52;7.35;;;;;;;11.61;100.00;100275.09;12171973;19;20010;-79
2023/01/06 01:01:12;;;;;;;10.02;5.20;;;;;;;11.58;100.00;100274.75;12190662;19;20532;-80
2023/01/06 01:05:14;;;;;;;22.95;8.60;;;;;;;11.60;100.00;100278.09;12227704;19;20014;-79
2023/01/06 01:09:21;;;;;;;14.60;8.05;;;;;;;11.61;100.00;100274.25;12216931;19;20038;-79
2023/01/06 01:13:23;;;;;;;14.48;7.20;;;;;;;11.60;100.00;100273.44;12226140;19;20033;-78
2023/01/06 01:17:29;;;;;;;14.40;7.82;;;;;;;11.57;100.00;100275.81;12210330;19;20025;-79
2023/01/06 01:21:30;;;;;;;14.55;8.48;;;;;;;11.56;100.00;100274.16;12174824;19;20456;-79
2023/01/06 01:25:32;;;;;;;19.10;9.18;;;;;;;11.57;100.00;100267.53;12195417;19;20030;-80
2023/01/06 01:29:33;;;;;;;14.30;8.38;;;;;;;11.58;100.00;100272.00;12194606;19;20037;-80
2023/01/06 01:33:36;;;;;;;19.58;9.45;;;;;;;11.54;100.00;100259.75;12169756;19;20358;-80
2023/01/06 01:37:38;;;;;;;19.20;10.77;;;;;;;11.47;100.00;100267.34;12196385;19;20086;-78
2023/01/06 01:41:40;;;;;;;20.45;10.98;;;;;;;11.35;100.00;100264.63;12170314;19;20338;-79
2023/01/06 01:45:45;;;;;;;22.63;10.80;;;;;;;11.33;100.00;100266.75;12191944;19;20011;-79
2023/01/06 01:49:50;;;;;;;16.13;9.45;;;;;;;11.35;100.00;100276.47;12202927;19;20014;-78
2023/01/06 01:53:54;;;;;;;16.67;8.60;;;;;;;11.35;100.00;100270.97;12183061;19;20595;-79
2023/01/06 01:58:13;;;;;;;14.93;8.68;;;;;;;11.36;100.00;100269.91;12203383;19;20059;-80
2023/01/06 02:02:17;;;;;;;11.50;7.45;;;;;;;11.38;100.00;100270.47;12192865;19;20046;-79
2023/01/06 02:06:23;;;;;;;14.32;6.88;;;;;;;11.38;100.00;100270.47;12176888;19;20038;-80
2023/01/06 02:10:25;;;;;;;14.25;7.72;;;;;;;11.44;100.00;100268.66;12198104;19;20015;-79
2023/01/06 02:14:28;;;;;;;13.98;7.55;;;;;;;11.44;100.00;100263.16;12201169;19;20011;-78
2023/01/06 02:18:59;;;;;;;13.07;6.88;;;;;;;11.48;100.00;100271.75;12179603;19;20023;-79
2023/01/06 02:23:34;;;;;;;10.88;5.93;;;;;;;11.52;100.00;100267.44;12198404;19;20007;-81
2023/01/06 02:28:08;;;;;;;11.30;6.25;;;;;;;11.46;100.00;100266.50;12178320;19;20002;-80
2023/01/06 02:32:30;;;;;;;16.33;7.50;;;;;;;11.51;100.00;100257.47;12195023;19;20067;-79
2023/01/06 02:37:09;;;;;;;15.50;8.20;;;;;;;11.52;100.00;100251.72;12177146;19;20002;-80
2023/01/06 02:41:14;;;;;;;11.40;6.80;;;;;;;11.51;100.00;100258.34;12197007;19;20019;-79
2023/01/06 02:45:16;;;;;;;11.35;5.93;;;;;;;11.48;100.00;100249.69;12176479;19;20050;-80
2023/01/06 02:49:47;;;;;;;9.63;5.45;;;;;;;11.47;100.00;100239.75;12198218;19;20014;-80
2023/01/06 02:53:55;;;;;;;10.18;5.97;;;;;;;11.45;100.00;100236.38;12176585;19;19999;-80
2023/01/06 02:58:15;;;;;;;11.75;6.70;;;;;;;11.47;100.00;100250.78;12198516;19;20320;-79
2023/01/06 03:02:19;;;;;;;12.13;8.00;;;;;;;11.47;100.00;100240.56;12187647;19;20010;-79
2023/01/06 03:06:25;;;;;;;15.75;9.60;;;;;;;11.48;100.00;100245.03;12177365;19;20495;-78
2023/01/06 03:10:28;;;;;;;18.02;10.63;;;;;;;11.46;100.00;100235.31;12194810;19;20006;-80
2023/01/06 03:14:34;;;;;;;16.73;10.32;;;;;;;11.42;100.00;100240.47;12194868;19;20105;-80
2023/01/06 03:18:38;;;;;;;15.65;9.55;;;;;;;11.43;100.00;100230.28;12173930;19;20007;-79
2023/01/06 03:22:42;;;;;;;17.05;9.45;;;;;;;11.43;100.00;100222.84;12194046;19;20014;-79
2023/01/06 03:26:45;;;;;;;;;;;;;;;11.36;100.00;100238.69;12171076;19;20346;-79
2023/01/06 03:30:57;;;;;;;14.57;8.18;;;;;;;11.36;100.00;100239.56;12188084;19;20258;-79
2023/01/06 03:35:21;;;;;;;15.75;8.73;;;;;;;11.37;100.00;100235.69;12197493;19;20041;-79
2023/01/06 03:39:32;;;;;;;12.18;7.40;;;;;;;11.39;100.00;100244.59;12177015;19;20007;-80
2023/01/06 03:43:42;;;;;;;;;;;;;;;11.33;100.00;100239.19;12193291;19;20027;-80
2023/01/06 03:48:09;;;;;;;11.95;5.93;;;;;;;11.36;100.00;100238.69;12169300;19;19911;-80
2023/01/06 03:52:19;;;;;;;13.10;6.72;;;;;;;11.37;100.00;100238.47;12197731;19;20005;-80
2023/01/06 03:56:44;;;;;;;12.95;6.82;;;;;;;11.38;100.00;100231.00;12200067;19;20409;-80
2023/01/06 04:00:47;;;;;;;9.63;5.88;;;;;;;11.39;100.00;100236.31;12172269;19;20751;-80
2023/01/06 04:05:12;;;;;;;8.80;5.38;;;;;;;11.43;100.00;100225.59;12195803;19;20006;-79
2023/01/06 04:09:16;;;;;;;9.00;5.30;;;;;;;11.43;100.00;100222.00;12173853;19;20025;-79
2023/01/06 04:13:19;;;;;;;10.18;5.50;;;;;;;11.46;100.00;100218.75;12192020;19;20011;-80
2023/01/06 04:17:21;;;;;;;8.35;5.68;;;;;;;11.41;100.00;100211.22;12197103;19;20003;-80
2023/01/06 04:21:23;;;;;;;8.02;4.75;;;;;;;11.44;100.00;100199.69;12176241;19;20030;-80
2023/01/06 04:25:25;;;;;;;8.93;4.18;;;;;;;11.41;100.00;100209.28;12194540;19;20368;-80
2023/01/06 04:29:26;;;;;;;6.47;3.33;;;;;;;11.43;100.00;100199.94;12197082;19;20009;-80
2023/01/06 04:33:30;;;;;;;4.55;2.95;;;;;;;11.42;100.00;100204.59;12173824;19;21094;-80
2023/01/06 04:37:35;;;;;;;7.95;3.70;;;;;;;11.44;100.00;100202.44;12195984;19;20479;-80
2023/01/06 04:41:36;;;;;;;7.60;3.63;;;;;;;11.43;100.00;100205.47;12171970;19;20322;-79
2023/01/06 04:45:39;;;;;;;9.38;3.92;;;;;;;11.46;100.00;100193.94;12193599;19;19998;-80
2023/01/06 04:49:40;;;;;;;7.10;4.35;;;;;;;11.44;100.00;100201.59;12197339;19;20014;-81
2023/01/06 04:53:42;;;;;;;7.82;4.78;;;;;;;11.43;100.00;100183.38;12172184;19;20010;-79
2023/01/06 04:57:43;;;;;;;8.65;4.85;;;;;;;11.39;100.00;100194.06;12195016;19;20013;-79
2023/01/06 05:01:45;;;;;;;7.35;4.50;;;;;;;11.41;100.00;100195.47;12189038;19;20042;-79
2023/01/06 05:05:47;;;;;;;8.73;5.10;;;;;;;11.37;100.00;100202.59;12171047;19;20023;-79
2023/01/06 05:09:49;;;;;;;6.95;3.92;;;;;;;11.38;100.00;100201.50;12191311;19;20010;-79
2023/01/06 05:13:51;;;;;;;10.90;4.50;;;;;;;11.36;100.00;100198.16;12192251;19;20429;-78
2023/01/06 05:17:53;;;;;;;;;;;;;;;11.34;100.00;100205.84;12172767;19;21222;-78
2023/01/06 05:21:54;;;;;;;9.50;4.28;;;;;;;11.30;100.00;100209.31;12195466;19;19928;-79
2023/01/06 05:25:56;;;;;;;8.45;4.55;;;;;;;11.32;100.00;100219.03;12206137;19;20002;-80
2023/01/06 05:29:58;;;;;;;6.82;4.28;;;;;;;11.33;100.00;100217.97;12188922;19;20006;-81
2023/01/06 05:33:59;;;;;;;5.53;4.10;;;;;;;11.32;100.00;100216.28;12205084;19;20002;-80
2023/01/06 05:38:01;;;;;;;9.07;3.42;;;;;;;11.29;100.00;100214.00;12206707;19;20014;-79
2023/01/06 05:42:02;;;;;;;5.93;3.42;;;;;;;11.26;100.00;100206.22;12183867;19;20085;-80
2023/01/06 05:46:10;;;;;;;6.47;3.70;;;;;;;11.27;100.00;100218.09;12204590;19;20628;-79
2023/01/06 05:50:11;;;;;;;7.18;3.33;;;;;;;11.21;100.00;100208.88;12200000;19;20014;-82
2023/01/06 05:54:13;;;;;;;7.72;4.03;;;;;;;11.13;100.00;100212.84;12180342;19;20003;-81
2023/01/06 05:58:15;;;;;;;8.02;4.45;;;;;;;11.14;100.00;100208.19;12199528;19;20031;-81
2023/01/06 06:02:16;;;;;;;9.07;5.30;;;;;;;11.09;100.00;100227.38;12197623;19;21544;-81
2023/01/06 06:06:23;;;;;;;9.95;5.63;;;;;;;11.02;100.00;100234.94;12187374;19;20016;-82
2023/01/06 06:10:24;;;;;;;6.60;3.95;;;;;;;10.85;100.00;100234.84;12240569;19;20019;-82
2023/01/06 06:14:26;;;;;;;10.23;4.53;;;;;;;10.81;100.00;100237.25;12258461;19;20067;-81
2023/01/06 06:18:28;;;;;;;13.45;4.80;;;;;;;10.73;100.00;100237.59;12200995;19;20037;-82
2023/01/06 06:22:29;;;;;;;6.45;3.97;;;;;;;10.72;100.00;100220.22;12201721;19;20027;-82
2023/01/06 06:26:31;;;;;;;6.60;3.20;;;;;;;10.64;100.00;100205.97;12207354;19;20498;-82
2023/01/06 06:30:33;;;;;;;6.93;2.57;;;;;;;10.58;100.00;100221.56;12182490;19;20102;-83
2023/01/06 06:34:35;;;;;;;5.70;3.28;;;;;;;10.57;100.00;100235.59;12203578;19;20244;-83
2023/01/06 06:38:38;;;;;;;6.63;2.97;;;;;;;10.56;100.00;100236.66;12194578;19;20014;-83
2023/01/06 06:42:39;;;;;;;8.80;3.03;;;;;;;10.57;100.00;100213.53;12204070;19;20010;-82
2023/01/06 06:46:41;;;;;;;5.93;2.72;;;;;;;10.55;100.00;100210.19;12203199;19;21765;-82
2023/01/06 06:51:07;;;;;;;5.05;2.22;;;;;;;10.53;100.00;100223.34;12180561;19;20007;-81
2023/01/06 06:55:08;;;;;;;4.40;2.30;;;;;;;10.54;100.00;100233.31;12202114;19;20368;-82
2023/01/06 06:59:12;;;;;;;9.50;2.47;;;;;;;10.52;100.00;100228.03;12202227;19;20022;-82
2023/01/06 07:03:13;;;;;;;3.33;2.08;;;;;;;10.53;100.00;100229.72;12178112;19;20091;-82
2023/01/06 07:07:15;;;;;;;4.70;1.58;;;;;;;10.49;100.00;100223.81;12198144;19;20003;-82
2023/01/06 07:11:17;;;;;;;3.47;1.85;;;;;;;10.48;100.00;100227.66;12198342;19;20003;-81
2023/01/06 07:15:20;;;;;;;5.75;2.28;;;;;;;10.49;100.00;100228.50;12177932;19;20011;-82
2023/01/06 07:19:21;;;;;;;4.65;2.38;;;;;;;10.46;100.00;100227.06;12198447;19;20006;-82
2023/01/06 07:23:24;;;;;;;4.00;2.10;;;;;;;10.47;100.00;100230.69;12199104;19;20002;-82
2023/01/06 07:27:27;;;;;;;5.18;2.25;;;;;;;10.51;100.00;100237.38;12178652;19;20007;-81
2023/01/06 07:31:28;;;;;;;5.05;2.42;;;;;;;10.51;100.00;100237.38;12200275;19;21362;-81
2023/01/06 07:35:30;;;;;;;3.67;2.07;;;;;;;10.55;100.00;100244.06;12201192;19;20007;-82
2023/01/06 07:39:33;;;;;;;5.00;2.67;;;;;;;10.60;100.00;100254.41;12236552;19;20244;-82
2023/01/06 07:43:34;;;;;;;5.30;2.88;;;;;;;10.60;100.00;100246.13;12249910;19;20006;-83
2023/01/06 07:47:37;;;;;;;7.28;2.78;;;;;;;10.59;100.00;100256.31;12173189;19;20014;-83
2023/01/06 07:51:39;;;;;;;3.67;2.10;;;;;;;10.61;100.00;100254.13;12195596;19;20357;-84
2023/01/06 07:55:41;;;;;;;5.50;1.98;;;;;;;10.61;100.00;100248.63;12197487;19;20011;-84
2023/01/06 07:59:44;;;;;;;4.72;1.88;;;;;;;10.60;100.00;100255.22;12183387;19;20018;-83
2023/01/06 08:03:46;;;;;;;5.10;1.40;;;;;;;10.65;100.00;100268.31;12198571;19;21464;-83
2023/01/06 08:07:48;;;;;;;4.22;1.10;;;;;;;10.63;100.00;100274.03;12207197;19;20002;-83
2023/01/06 08:11:50;;;;;;;1.83;1.10;;;;;;;10.59;100.00;100280.25;12188459;19;20002;-84
2023/01/06 08:15:52;;;;;;;2.27;1.00;;;;;;;10.59;100.00;100286.63;12202846;19;20451;-83
2023/01/06 08:19:53;;;;;;;5.65;0.90;;;;;;;10.60;100.00;100282.78;12199929;19;20035;-83
2023/01/06 08:23:55;;;;;;;3.45;0.95;;;;;;;10.64;100.00;100285.91;12174374;19;20003;-83
2023/01/06 08:27:58;;;;;;;2.40;0.93;;;;;;;10.62;100.00;100274.25;12200140;19;20003;-82
2023/01/06 08:32:00;;;;;;;4.85;1.30;;;;;;;10.62;100.00;100277.88;12196582;19;20020;-83
2023/01/06 08:36:15;;;;;;;4.25;0.95;;;;;;;10.57;100.00;100269.50;12178749;19;20018;-82
2023/01/06 08:40:18;;;;;;;3.00;1.20;;;;;;;10.64;100.00;100270.19;12200787;19;20013;-82
2023/01/06 08:44:19;;;;;;;2.17;1.08;;;;;;;10.69;100.00;100272.25;12200310;19;20067;-82
2023/01/06 08:48:21;;;;;;;2.45;1.20;;;;;;;10.72;100.00;100271.78;12180518;19;20369;-81
2023/01/06 08:52:25;;;;;;;2.60;1.20;;;;;;;10.70;100.00;100277.50;12200179;19;20070;-81
2023/01/06 08:56:30;;;;;;;3.85;1.10;;;;;;;10.77;100.00;100279.31;12196433;19;20010;-81
2023/01/06 09:00:31;;;;;;;2.53;1.20;;;;;;;10.76;100.00;100283.97;12185396;19;20043;-81
2023/01/06 09:04:33;;;;;;;2.58;1.20;;;;;;;10.83;100.00;100279.22;12209430;19;20003;-81
2023/01/06 09:08:36;;;;;;;3.03;1.20;;;;;;;10.90;100.00;100271.63;12210456;19;20054;-82
2023/01/06 09:12:39;;;;;;;2.20;1.10;;;;;;;10.89;100.00;100277.41;12186094;19;20002;-81
2023/01/06 09:16:44;;;;;;;2.25;0.73;;;;;;;10.91;100.00;100275.22;12210091;19;20345;-81
2023/01/06 09:20:46;;;;;;;2.30;1.00;;;;;;;11.00;100.00;100268.25;12188347;19;20003;-81
2023/01/06 09:24:48;;;;;;;3.22;0.98;;;;;;;11.07;100.00;100273.69;12206575;19;20007;-80
2023/01/06 09:28:50;;;;;;;1.20;0.70;;;;;;;11.02;100.00;100279.91;12229831;19;20025;-81
2023/01/06 09:32:52;;;;;;;5.35;1.00;;;;;;;11.11;100.00;100280.38;12192723;19;20372;-82
2023/01/06 09:36:53;;;;;;;1.85;0.85;;;;;;;11.12;100.00;100288.44;12215430;19;20017;-82
2023/01/06 09:41:14;;;;;;;1.63;0.95;;;;;;;11.18;100.00;100294.88;12207690;19;19999;-82
2023/01/06 09:45:32;;;;;;;1.95;0.80;;;;;;;11.26;100.00;100302.78;12186840;19;20003;-80
2023/01/06 09:49:50;;;;;;;2.83;0.75;;;;;;;11.24;100.00;100315.97;12210117;19;20002;-82
2023/01/06 09:54:03;;;;;;;2.85;0.70;;;;;;;11.22;100.00;100314.56;12188037;19;20038;-82
2023/01/06 09:58:19;;;;;;;2.22;0.60;;;;;;;11.16;100.00;100324.63;12203672;19;20003;-81
2023/01/06 10:02:35;;;;;;;2.60;0.70;;;;;;;11.09;100.00;100318.38;12202464;19;20016;-81
2023/01/06 10:06:44;;;;;;;2.45;0.60;;;;;;;11.14;100.00;100316.59;12191813;19;20006;-79
2023/01/06 10:11:07;;;;;;;2.70;0.70;;;;;;;11.20;100.00;100317.53;12212206;19;20002;-81
2023/01/06 10:15:31;;;;;;;1.35;0.65;;;;;;;11.23;100.00;100314.28;12194157;19;20353;-81
2023/01/06 10:19:41;;;;;;;2.70;0.88;;;;;;;11.31;100.00;100321.38;12205664;19;20097;-81
2023/01/06 10:23:56;;;;;;;1.88;0.80;;;;;;;11.33;100.00;100324.72;12186640;19;20007;-80
2023/01/06 10:28:17;;;;;;;1.80;0.75;;;;;;;11.38;100.00;100331.19;12209286;19;20014;-81
2023/01/06 10:32:21;;;;;;;2.08;0.93;;;;;;;11.42;100.00;100334.28;12213453;19;20054;-81
2023/01/06 10:36:38;;;;;;;1.67;0.73;;;;;;;11.34;100.00;100318.97;12185573;19;20011;-80
2023/01/06 10:40:40;;;;;;;3.17;0.80;;;;;;;11.26;100.00;100313.81;12211956;19;20010;-81
2023/01/06 10:44:45;;;;;;;4.45;0.88;;;;;;;11.32;100.00;100314.75;12191356;19;20010;-81
2023/01/06 10:48:48;;;;;;;3.00;0.73;;;;;;;11.30;100.00;100312.25;12213993;19;20003;-79
2023/01/06 10:52:50;;;;;;;1.30;0.65;;;;;;;11.38;100.00;100300.81;12211372;19;20022;-81
2023/01/06 10:56:57;;;;;;;1.23;0.73;;;;;;;11.48;100.00;100302.13;12190007;19;20006;-81
2023/01/06 11:00:59;;;;;;;3.55;1.00;;;;;;;11.54;100.00;100303.91;12203684;19;20003;-81
2023/01/06 11:05:11;;;;;;;1.90;0.80;;;;;;;11.62;100.00;100292.50;12208849;19;20010;-83
2023/01/06 11:09:30;;;;;;;2.75;0.82;;;;;;;11.63;100.00;100291.44;12188199;19;20084;-82
2023/01/06 11:13:37;;;;;;;2.17;1.08;;;;;;;11.72;100.00;100289.94;12214617;19;20003;-81
2023/01/06 11:17:44;;;;;;;3.58;1.30;;;;;;;11.79;100.00;100284.28;12200648;19;20070;-81
2023/01/06 11:21:46;;;;;;;1.75;1.00;;;;;;;11.79;100.00;100268.53;12247637;19;20003;-82
2023/01/06 11:25:59;;;;;;;;;;;;;;;11.79;100.00;100273.22;12263153;19;20003;-83
2023/01/06 11:30:25;;;;;;;2.63;1.40;;;;;;;11.83;100.00;100268.88;12205160;19;19914;-84
2023/01/06 11:34:28;;;;;;;1.45;0.85;;;;;;;11.81;100.00;100251.75;12218049;19;20006;-81
2023/01/06 11:38:30;;;;;;;4.25;1.50;;;;;;;11.81;100.00;100251.75;12222785;19;20014;-81
2023/01/06 11:42:34;;;;;;;3.10;0.93;;;;;;;11.87;100.00;100248.03;12195505;19;20006;-81
2023/01/06 11:46:38;;;;;;;;;;;;;;;11.90;100.00;100250.28;12219001;19;20027;-80
2023/01/06 11:50:40;;;;;;;1.75;1.00;;;;;;;12.04;100.00;100239.75;12188681;19;19918;-81
2023/01/06 11:54:42;;;;;;;4.07;1.38;;;;;;;12.04;100.00;100224.00;12216828;19;20050;-82
2023/01/06 11:58:59;;;;;;;5.20;1.23;;;;;;;12.03;100.00;100221.50;12210657;19;20013;-81
2023/01/06 12:03:15;;;;;;;2.08;1.10;;;;;;;11.98;100.00;100219.47;12186727;19;20010;-82
2023/01/06 12:07:31;;;;;;;2.67;1.13;;;;;;;11.98;100.00;100211.19;12213666;19;20566;-81
2023/01/06 12:11:44;;;;;;;2.22;1.30;;;;;;;11.98;100.00;100227.75;12212045;19;20015;-81
2023/01/06 12:16:05;;;;;;;2.30;1.42;;;;;;;11.90;100.00;100221.81;12189792;19;20006;-80
2023/01/06 12:20:15;;;;;;;2.67;1.00;;;;;;;11.86;100.00;100219.53;12209103;19;19999;-81
2023/01/06 12:24:22;;;;;;;2.10;1.30;;;;;;;11.84;100.00;100231.91;12187954;19;20010;-81
2023/01/06 12:28:30;;;;;;;4.57;1.23;;;;;;;11.76;100.00;100224.88;12210691;19;20018;-80
2023/01/06 12:32:40;;;;;;;3.42;1.20;;;;;;;11.80;100.00;100222.44;12204275;19;20011;-80
2023/01/06 12:36:48;;;;;;;2.20;1.17;;;;;;;11.78;100.00;100225.47;12184130;19;20483;-80
2023/01/06 12:41:20;;;;;;;2.63;1.40;;;;;;;11.77;100.00;100234.81;12207647;19;20013;-81
2023/01/06 12:45:46;;;;;;;2.47;1.17;;;;;;;11.72;100.00;100236.63;12178919;19;20027;-81
2023/01/06 12:50:05;;;;;;;3.00;1.42;;;;;;;11.58;100.00;100241.63;12204431;19;20130;-84
2023/01/06 12:54:16;;;;;;;4.07;1.25;;;;;;;11.69;100.00;100228.84;12182925;19;20081;-81
2023/01/06 12:58:49;;;;;;;3.00;1.30;;;;;;;11.74;100.00;100226.19;12203670;19;20330;-81
2023/01/06 13:03:08;;;;;;;1.95;1.00;;;;;;;11.76;100.00;100212.97;12178968;19;20027;-80
2023/01/06 13:07:41;;;;;;;2.65;0.90;;;;;;;11.81;100.00;100233.25;12208218;19;20046;-81
2023/01/06 13:12:19;;;;;;;2.70;1.20;;;;;;;11.91;100.00;100226.25;12184064;19;20015;-79
2023/01/06 13:16:33;;;;;;;2.65;1.35;;;;;;;11.97;100.00;100228.88;12211177;19;20010;-81
2023/01/06 13:20:42;;;;;;;2.60;1.20;;;;;;;11.98;100.00;100224.16;12208100;19;20011;-80
2023/01/06 13:25:13;;;;;;;3.30;1.27;;;;;;;11.95;100.00;100233.78;12187304;19;21332;-80
2023/01/06 13:29:56;;;;;;;2.47;1.08;;;;;;;11.94;100.00;100223.84;12208915;19;20034;-80
2023/01/06 13:34:28;;;;;;;3.30;0.63;;;;;;;11.98;100.00;100218.66;12184860;19;20027;-80
2023/01/06 13:38:41;;;;;;;2.42;1.15;;;;;;;12.06;100.00;100230.13;12210604;19;20003;-81
2023/01/06 13:42:54;;;;;;;2.38;1.00;;;;;;;12.12;100.00;100221.94;12196329;19;20010;-82
2023/01/06 13:47:03;;;;;;;1.60;0.88;;;;;;;12.19;100.00;100231.72;12246532;19;20006;-80
2023/01/06 13:51:10;;;;;;;1.20;0.88;;;;;;;12.20;100.00;100227.88;12225977;19;19999;-80
2023/01/06 13:55:17;;;;;;;1.85;0.95;;;;;;;12.11;100.00;100237.69;12231369;19;20018;-81
2023/01/06 13:59:23;;;;;;;2.08;0.90;;;;;;;12.07;100.00;100240.06;12225049;19;21055;-81
2023/01/06 14:03:25;;;;;;;2.03;1.08;;;;;;;11.96;100.00;100241.00;12196863;19;20534;-80
2023/01/06 14:07:51;;;;;;;1.67;0.82;;;;;;;11.97;100.00;100244.59;12217842;19;20386;-80
2023/01/06 14:11:53;;;;;;;1.55;0.80;;;;;;;11.92;100.00;100245.34;12199315;19;20633;-80
2023/01/06 14:16:07;;;;;;;4.07;0.80;;;;;;;11.93;100.00;100249.78;12215911;19;20007;-79
2023/01/06 14:20:32;;;;;;;;;;;;;;;11.86;100.00;100246.31;12215764;19;20006;-80
2023/01/06 14:24:35;;;;;;;3.10;0.77;;;;;;;11.83;100.00;100250.38;12189356;19;19914;-80
2023/01/06 14:28:37;;;;;;;2.90;0.90;;;;;;;11.92;100.00;100252.78;12217558;19;20372;-80
2023/01/06 14:32:38;;;;;;;1.10;0.80;;;;;;;11.92;100.00;100250.03;12195057;19;20003;-80
2023/01/06 14:36:40;;;;;;;2.72;1.00;;;;;;;11.92;100.00;100253.63;12219027;19;20003;-80
2023/01/06 14:41:03;;;;;;;2.13;0.90;;;;;;;11.95;100.00;100241.25;12214853;19;20058;-80
2023/01/06 14:45:26;;;;;;;1.33;0.77;;;;;;;12.00;100.00;100249.63;12190221;19;20014;-80
2023/01/06 14:49:43;;;;;;;1.83;1.00;;;;;;;12.06;100.00;100248.63;12214166;19;20050;-79
2023/01/06 14:53:51;;;;;;;2.15;1.08;;;;;;;12.05;100.00;100258.84;12187601;19;20014;-80
2023/01/06 14:57:52;;;;;;;2.10;0.98;;;;;;;12.05;100.00;100255.25;12213898;19;20006;-80
2023/01/06 15:02:14;;;;;;;3.42;1.40;;;;;;;12.02;100.00;100256.59;12208177;19;20026;-79
2023/01/06 15:06:21;;;;;;;4.60;0.73;;;;;;;11.96;100.00;100260.34;12188596;19;20010;-80
2023/01/06 15:10:25;;;;;;;0.98;0.60;;;;;;;11.86;100.00;100260.97;12212192;19;20018;-80
2023/01/06 15:14:33;;;;;;;2.72;0.90;;;;;;;11.84;100.00;100262.28;12210393;19;19998;-80
2023/01/06 15:18:40;;;;;;;3.25;1.38;;;;;;;11.87;100.00;100256.31;12188901;19;20023;-80
2023/01/06 15:22:48;;;;;;;2.03;1.00;;;;;;;11.83;100.00;100266.94;12205889;19;20030;-80
2023/01/06 15:26:52;;;;;;;3.38;1.85;;;;;;;11.78;100.00;100263.28;12180164;19;20002;-80
2023/01/06 15:30:55;;;;;;;2.45;1.58;;;;;;;11.71;100.00;100266.16;12204598;19;19998;-79
2023/01/06 15:34:58;;;;;;;;;;;;;;;11.67;100.00;100270.50;12206342;19;20083;-80
2023/01/06 15:39:02;;;;;;;4.50;2.03;;;;;;;11.66;100.00;100260.56;12183777;19;19926;-80
2023/01/06 15:43:06;;;;;;;2.20;1.20;;;;;;;11.56;100.00;100263.09;12207791;19;20455;-80
2023/01/06 15:47:11;;;;;;;3.03;1.33;;;;;;;11.54;100.00;100266.13;12205898;19;20732;-80
2023/01/06 15:51:16;;;;;;;2.70;1.08;;;;;;;11.53;100.00;100269.94;12189839;19;20014;-80
2023/01/06 15:55:32;;;;;;;3.50;0.93;;;;;;;11.51;100.00;100269.38;12202632;19;20460;-78
2023/01/06 15:59:33;;;;;;;1.95;1.10;;;;;;;11.50;100.00;100264.94;12198373;19;20026;-80
2023/01/06 16:03:38;;;;;;;2.47;1.15;;;;;;;11.51;100.00;100274.03;12181416;19;20027;-82
2023/01/06 16:07:43;;;;;;;5.93;1.98;;;;;;;11.50;100.00;100272.38;12214279;19;20070;-80
2023/01/06 16:12:04;;;;;;;3.40;1.00;;;;;;;11.51;100.00;100274.03;12187857;19;20014;-80
2023/01/06 16:16:13;;;;;;;3.97;1.20;;;;;;;11.51;100.00;100277.66;12208686;19;20018;-81
2023/01/06 16:20:22;;;;;;;2.15;1.17;;;;;;;11.49;100.00;100268.78;12209374;19;20014;-79
2023/01/06 16:24:27;;;;;;;1.98;1.02;;;;;;;11.51;100.00;100268.50;12176600;19;20006;-79
2023/01/06 16:28:29;;;;;;;3.15;1.25;;;;;;;11.52;100.00;100276.56;12215646;19;20123;-79
2023/01/06 16:32:37;;;;;;;3.03;1.00;;;;;;;11.54;100.00;100276.31;12225618;19;20007;-79
2023/01/06 16:36:39;;;;;;;1.67;1.05;;;;;;;11.51;100.00;100290.59;12183263;19;20003;-78
2023/01/06 16:40:40;;;;;;;4.03;1.70;;;;;;;11.51;100.00;100290.59;12199387;19;20007;-78
2023/01/06 16:44:42;;;;;;;1.58;1.10;;;;;;;11.50;100.00;100278.72;12175318;19;20035;-77
2023/01/06 16:48:45;;;;;;;2.38;1.30;;;;;;;11.47;100.00;100281.13;12200727;19;20373;-78
2023/01/06 16:52:57;;;;;;;2.73;1.47;;;;;;;11.44;100.00;100284.38;12196297;19;20007;-78
2023/01/06 16:56:59;;;;;;;2.10;1.33;;;;;;;11.41;100.00;100286.53;12177631;19;20048;-78
2023/01/06 17:01:13;;;;;;;2.97;1.00;;;;;;;11.37;100.00;100284.53;12192817;19;20018;-78
2023/01/06 17:05:18;;;;;;;2.78;1.40;;;;;;;11.36;100.00;100275.41;12197511;19;20011;-79
2023/01/06 17:09:22;;;;;;;2.42;1.40;;;;;;;11.33;100.00;100277.81;12179185;19;20007;-78
2023/01/06 17:13:35;;;;;;;2.22;1.13;;;;;;;11.34;100.00;100285.84;12201799;19;20018;-79
2023/01/06 17:17:38;;;;;;;3.10;1.33;;;;;;;11.33;100.00;100272.28;12200014;19;20006;-78
2023/01/06 17:21:40;;;;;;;2.53;1.35;;;;;;;11.29;100.00;100280.22;12188690;19;20010;-79
2023/01/06 17:25:43;;;;;;;3.17;1.73;;;;;;;11.26;100.00;100279.88;12208472;19;20010;-79
2023/01/06 17:29:45;;;;;;;4.15;1.70;;;;;;;11.28;100.00;100283.22;12187092;19;20010;-80
2023/01/06 17:33:46;;;;;;;2.07;1.07;;;;;;;11.27;100.00;100285.13;12209009;19;20017;-80
2023/01/06 17:37:57;;;;;;;3.90;1.70;;;;;;;11.23;100.00;100286.72;12208516;19;20407;-78
2023/01/06 17:42:11;;;;;;;3.42;1.85;;;;;;;11.24;100.00;100285.63;12182420;19;20026;-81
2023/01/06 17:46:34;;;;;;;4.65;1.85;;;;;;;11.20;100.00;100281.69;12206276;19;20003;-78
2023/01/06 17:50:46;;;;;;;3.25;1.50;;;;;;;11.18;100.00;100283.81;12208143;19;20017;-78
2023/01/06 17:59:16;;;;;;;5.72;1.88;;;;;;;11.20;100.00;100283.59;12210729;19;20019;-80
2023/01/06 18:03:22;;;;;;;4.93;1.02;;;;;;;11.16;100.00;100283.25;12183620;19;20334;-79
2023/01/06 18:07:26;;;;;;;2.60;1.05;;;;;;;11.17;100.00;100291.28;12211631;19;20016;-81
2023/01/06 18:11:32;;;;;;;2.90;1.38;;;;;;;11.24;100.00;100290.31;12211533;19;20006;-79
2023/01/06 18:15:34;;;;;;;2.22;1.27;;;;;;;11.26;100.00;100293.66;12190617;19;20050;-81
2023/01/06 18:19:36;;;;;;;2.20;1.03;;;;;;;11.27;100.00;100298.91;12209403;19;20045;-79
2023/01/06 18:23:40;;;;;;;2.03;0.98;;;;;;;11.26;100.00;100304.69;12198183;19;20284;-79
2023/01/06 18:27:41;;;;;;;1.27;0.77;;;;;;;11.26;100.00;100302.78;12203576;19;20042;-80
2023/01/06 18:31:45;;;;;;;1.27;1.00;;;;;;;11.26;100.00;100302.78;12201682;19;20018;-79
2023/01/06 18:35:56;;;;;;;1.27;0.80;;;;;;;11.27;100.00;100301.69;12188042;19;20032;-80
2023/01/06 18:40:10;;;;;;;1.38;0.88;;;;;;;11.29;100.00;100305.03;12206916;19;20011;-78
2023/01/06 18:44:18;;;;;;;1.55;1.00;;;;;;;11.32;100.00;100299.03;12201451;19;20002;-78
2023/01/06 18:48:30;;;;;;;1.88;1.15;;;;;;;11.32;100.00;100304.56;12181096;19;20523;-79